Time;durP1;ratioP1;P1;durP2;ratioP2;P2;SDS_P1;SDS_P2;PMS_P1;PMS_P2;Temp;Humidity;BMP_temperature;BMP_pressure;BME280_temperature;BME280_humidity;BME280_pressure;Samples;Min_cycle;Max_cycle;Signal;HPM_P1;HPM_P2
2022/02/19 00:01:11;;;;;;;;;;;;;;;;;;5071653;28;19908;-69
2022/02/19 00:03:37;;;;;;;;;;;;;;;;;;5067237;28;19971;-70
2022/02/19 00:06:03;;;;;;;;;;;;;;;;;;5074829;28;19915;-69
2022/02/19 00:08:28;;;;;;;;;;;;;;;;;;5072014;28;19908;-70
2022/02/19 00:10:54;;;;;;;;;;;;;;;;;;5071967;28;19962;-70
2022/02/19 00:13:20;;;;;;;;;;;;;;;;;;5073747;28;19977;-70
2022/02/19 00:15:47;;;;;;;;;;;;;;;;;;5067916;28;19912;-70
2022/02/19 00:18:13;;;;;;;;;;;;;;;;;;5073124;28;20433;-70
2022/02/19 00:20:38;;;;;;;;;;;;;;;;;;5072586;28;19904;-70
2022/02/19 00:23:04;;;;;;;;;;;;;;;;;;5071599;28;19917;-70
2022/02/19 00:25:30;;;;;;;;;;;;;;;;;;5071290;28;19912;-70
2022/02/19 00:27:56;;;;;;;;;;;;;;;;;;5069567;28;20237;-70
2022/02/19 00:30:22;;;;;;;;;;;;;;;;;;5072037;28;19908;-70
2022/02/19 00:32:48;;;;;;;;;;;;;;;;;;5072696;28;19912;-70
2022/02/19 00:35:14;;;;;;;;;;;;;;;;;;5071017;28;19970;-70
2022/02/19 00:37:40;;;;;;;;;;;;;;;;;;5071684;28;20260;-70
2022/02/19 00:40:06;;;;;;;;;;;;;;;;;;5071101;28;19936;-69
2022/02/19 00:42:32;;;;;;;;;;;;;;;;;;5068955;28;20368;-69
2022/02/19 00:44:58;;;;;;;;;;;;;;;;;;5073913;28;19904;-69
2022/02/19 00:47:24;;;;;;;;;;;;;;;;;;5070842;28;19947;-69
2022/02/19 00:49:49;;;;;;;;;;;;;;;;;;5071148;28;19915;-70
2022/02/19 00:52:15;;;;;;;;;;;;;;;;;;5071632;28;19915;-70
2022/02/19 00:54:41;;;;;;;;;;;;;;;;;;5067141;28;19913;-70
2022/02/19 00:57:07;;;;;;;;;;;;;;;;;;5073596;28;19966;-70
2022/02/19 00:59:33;;;;;;;;;;;;;;;;;;5070594;28;19919;-70
2022/02/19 01:01:59;;;;;;;;;;;;;;;;;;5071004;28;20003;-69
2022/02/19 01:04:25;;;;;;;;;;;;;;;;;;5071379;28;19916;-70
2022/02/19 01:06:51;;;;;;;;;;;;;;;;;;5068125;28;19909;-70
2022/02/19 01:09:17;;;;;;;;;;;;;;;;;;5072439;28;19991;-70
2022/02/19 01:11:43;;;;;;;;;;;;;;;;;;5072269;28;20012;-69
2022/02/19 01:14:08;;;;;;;;;;;;;;;;;;5070936;28;19912;-70
2022/02/19 01:16:34;;;;;;;;;;;;;;;;;;5070832;28;19912;-70
2022/02/19 01:19:00;;;;;;;;;;;;;;;;;;5070529;28;19980;-70
2022/02/19 01:21:26;;;;;;;;;;;;;;;;;;5070436;28;19955;-70
2022/02/19 01:23:52;;;;;;;;;;;;;;;;;;5072345;28;20450;-69
2022/02/19 01:26:18;;;;;;;;;;;;;;;;;;5071012;28;19999;-70
2022/02/19 01:28:44;;;;;;;;;;;;;;;;;;5073798;28;19908;-70
2022/02/19 01:31:10;;;;;;;;;;;;;;;;;;5074290;28;20125;-70
2022/02/19 01:33:36;;;;;;;;;;;;;;;;;;5071394;28;20360;-70
2022/02/19 01:36:01;;;;;;;;;;;;;;;;;;5077710;28;19911;-69
2022/02/19 01:38:29;;;;;;;;;;;;;;;;;;5074118;28;19951;-69
2022/02/19 01:40:55;;;;;;;;;;;;;;;;;;5074909;28;19931;-70
2022/02/19 01:43:21;;;;;;;;;;;;;;;;;;5074742;28;20363;-70
2022/02/19 01:45:47;;;;;;;;;;;;;;;;;;5070384;28;19916;-70
2022/02/19 01:48:13;;;;;;;;;;;;;;;;;;5076099;28;19908;-69
2022/02/19 01:50:39;;;;;;;;;;;;;;;;;;5075420;28;20279;-70
2022/02/19 01:53:05;;;;;;;;;;;;;;;;;;5074648;28;19909;-70
2022/02/19 01:55:31;;;;;;;;;;;;;;;;;;5073596;28;19908;-70
2022/02/19 01:57:57;;;;;;;;;;;;;;;;;;5072160;28;19908;-69
2022/02/19 02:00:23;;;;;;;;;;;;;;;;;;5073450;28;20352;-70
2022/02/19 02:02:49;;;;;;;;;;;;;;;;;;5075177;28;19924;-70
2022/02/19 02:05:15;;;;;;;;;;;;;;;;;;5073711;28;19919;-69
2022/02/19 02:07:41;;;;;;;;;;;;;;;;;;5074039;28;19908;-70
2022/02/19 02:10:07;;;;;;;;;;;;;;;;;;5073623;28;19915;-70
2022/02/19 02:12:33;;;;;;;;;;;;;;;;;;5071134;28;19920;-70
2022/02/19 02:14:58;;;;;;;;;;;;;;;;;;5076263;28;20370;-70
2022/02/19 02:17:24;;;;;;;;;;;;;;;;;;5075112;28;19912;-70
2022/02/19 02:19:50;;;;;;;;;;;;;;;;;;5074212;28;19934;-70
2022/02/19 02:22:16;;;;;;;;;;;;;;;;;;5074082;28;19943;-70
2022/02/19 02:24:42;;;;;;;;;;;;;;;;;;5069057;28;19947;-70
2022/02/19 02:27:12;;;;;;;;;;;;;;;;;;5076805;28;19943;-69
2022/02/19 02:29:38;;;;;;;;;;;;;;;;;;5075025;28;19916;-70
2022/02/19 02:32:04;;;;;;;;;;;;;;;;;;5073852;28;19908;-70
2022/02/19 02:34:30;;;;;;;;;;;;;;;;;;5073581;28;19915;-70
2022/02/19 02:36:56;;;;;;;;;;;;;;;;;;5071152;28;20024;-70
2022/02/19 02:39:21;;;;;;;;;;;;;;;;;;5073048;28;19904;-69
2022/02/19 02:41:47;;;;;;;;;;;;;;;;;;5074210;28;19908;-70
2022/02/19 02:44:13;;;;;;;;;;;;;;;;;;5073522;28;19920;-69
2022/02/19 02:46:39;;;;;;;;;;;;;;;;;;5073018;28;19916;-70
2022/02/19 02:49:05;;;;;;;;;;;;;;;;;;5072095;28;20522;-69
2022/02/19 02:51:31;;;;;;;;;;;;;;;;;;5070856;28;19932;-70
2022/02/19 02:53:57;;;;;;;;;;;;;;;;;;5075778;28;19999;-70
2022/02/19 02:56:23;;;;;;;;;;;;;;;;;;5072759;28;19959;-70
2022/02/19 02:58:49;;;;;;;;;;;;;;;;;;5073269;28;19908;-70
2022/02/19 03:01:15;;;;;;;;;;;;;;;;;;5072659;28;19919;-69
2022/02/19 03:03:40;;;;;;;;;;;;;;;;;;5068423;28;20350;-70
2022/02/19 03:06:06;;;;;;;;;;;;;;;;;;5076403;28;19904;-70
2022/02/19 03:08:33;;;;;;;;;;;;;;;;;;5073243;28;19974;-70
2022/02/19 03:10:59;;;;;;;;;;;;;;;;;;5072643;28;19909;-70
2022/02/19 03:13:25;;;;;;;;;;;;;;;;;;5072357;28;19939;-69
2022/02/19 03:15:51;;;;;;;;;;;;;;;;;;5069608;28;19913;-70
2022/02/19 03:18:17;;;;;;;;;;;;;;;;;;5073441;28;19904;-70
2022/02/19 03:20:43;;;;;;;;;;;;;;;;;;5075300;28;19904;-70
2022/02/19 03:23:09;;;;;;;;;;;;;;;;;;5072800;28;19940;-70
2022/02/19 03:25:34;;;;;;;;;;;;;;;;;;5071632;28;19916;-70
2022/02/19 03:28:00;;;;;;;;;;;;;;;;;;5071127;28;19912;-70
2022/02/19 03:30:26;;;;;;;;;;;;;;;;;;5072012;28;19947;-69
2022/02/19 03:32:54;;;;;;;;;;;;;;;;;;5074308;28;19995;-70
2022/02/19 03:35:19;;;;;;;;;;;;;;;;;;5071748;28;19909;-70
2022/02/19 03:37:45;;;;;;;;;;;;;;;;;;5072070;28;19908;-70
2022/02/19 03:40:11;;;;;;;;;;;;;;;;;;5072178;28;20327;-70
2022/02/19 03:42:37;;;;;;;;;;;;;;;;;;5068492;28;20019;-70
2022/02/19 03:45:03;;;;;;;;;;;;;;;;;;5075582;28;19953;-70
2022/02/19 03:47:29;;;;;;;;;;;;;;;;;;5071800;28;20498;-70
2022/02/19 03:49:55;;;;;;;;;;;;;;;;;;5071378;28;19912;-70
2022/02/19 03:52:21;;;;;;;;;;;;;;;;;;5071685;28;19915;-70
2022/02/19 03:54:47;;;;;;;;;;;;;;;;;;5068509;28;19943;-70
2022/02/19 03:57:13;;;;;;;;;;;;;;;;;;5074354;28;19904;-70
2022/02/19 03:59:38;;;;;;;;;;;;;;;;;;5072799;28;20004;-70
2022/02/19 04:02:04;;;;;;;;;;;;;;;;;;5071827;28;20007;-70
2022/02/19 04:04:30;;;;;;;;;;;;;;;;;;5073295;28;19922;-70
2022/02/19 04:06:56;;;;;;;;;;;;;;;;;;5069326;28;19936;-70
2022/02/19 04:09:22;;;;;;;;;;;;;;;;;;5072074;28;19904;-70
2022/02/19 04:11:48;;;;;;;;;;;;;;;;;;5072833;28;19904;-70
2022/02/19 04:14:14;;;;;;;;;;;;;;;;;;5071632;28;19916;-70
2022/02/19 04:16:40;;;;;;;;;;;;;;;;;;5071958;28;19916;-70
2022/02/19 04:19:06;;;;;;;;;;;;;;;;;;5071078;28;19908;-70
2022/02/19 04:21:31;;;;;;;;;;;;;;;;;;5068788;28;19920;-70
2022/02/19 04:23:57;;;;;;;;;;;;;;;;;;5073536;28;19970;-70
2022/02/19 04:26:23;;;;;;;;;;;;;;;;;;5072007;28;19912;-70
2022/02/19 04:28:49;;;;;;;;;;;;;;;;;;5071739;28;19987;-70
2022/02/19 04:31:16;;;;;;;;;;;;;;;;;;5071684;28;20424;-70
2022/02/19 04:33:42;;;;;;;;;;;;;;;;;;5067359;28;19908;-70
2022/02/19 04:36:08;;;;;;;;;;;;;;;;;;5074686;28;20275;-70
2022/02/19 04:38:34;;;;;;;;;;;;;;;;;;5071034;28;19916;-70
2022/02/19 04:41:00;;;;;;;;;;;;;;;;;;5071939;28;19915;-70
2022/02/19 04:43:26;;;;;;;;;;;;;;;;;;5071668;28;19916;-70
2022/02/19 04:45:52;;;;;;;;;;;;;;;;;;5068197;28;20233;-70
2022/02/19 04:48:18;;;;;;;;;;;;;;;;;;5071778;28;20038;-70
2022/02/19 04:50:43;;;;;;;;;;;;;;;;;;5072747;28;19908;-70
2022/02/19 04:53:09;;;;;;;;;;;;;;;;;;5071315;28;19950;-70
2022/02/19 04:55:35;;;;;;;;;;;;;;;;;;5071176;28;19953;-70
2022/02/19 04:58:01;;;;;;;;;;;;;;;;;;5069490;28;20298;-70
2022/02/19 05:00:27;;;;;;;;;;;;;;;;;;5070603;28;19904;-70
2022/02/19 05:02:53;;;;;;;;;;;;;;;;;;5076036;28;19978;-70
2022/02/19 05:05:19;;;;;;;;;;;;;;;;;;5075285;28;19908;-70
2022/02/19 05:07:45;;;;;;;;;;;;;;;;;;5074986;28;19913;-70
2022/02/19 05:10:10;;;;;;;;;;;;;;;;;;5074644;28;19965;-70
2022/02/19 05:12:41;;;;;;;;;;;;;;;;;;5071378;28;20379;-70
2022/02/19 05:15:07;;;;;;;;;;;;;;;;;;5086124;28;19904;-70
2022/02/19 05:17:33;;;;;;;;;;;;;;;;;;5075140;28;20409;-70
2022/02/19 05:19:58;;;;;;;;;;;;;;;;;;5075252;28;19908;-70
2022/02/19 05:22:24;;;;;;;;;;;;;;;;;;5074190;28;20044;-71
2022/02/19 05:24:50;;;;;;;;;;;;;;;;;;5071991;28;20356;-70
2022/02/19 05:27:16;;;;;;;;;;;;;;;;;;5076379;28;19905;-70
2022/02/19 05:29:42;;;;;;;;;;;;;;;;;;5075836;28;20325;-69
2022/02/19 05:32:08;;;;;;;;;;;;;;;;;;5075075;28;20003;-70
2022/02/19 05:34:34;;;;;;;;;;;;;;;;;;5075985;28;19916;-70
2022/02/19 05:36:59;;;;;;;;;;;;;;;;;;5072525;28;19908;-70
2022/02/19 05:39:25;;;;;;;;;;;;;;;;;;5074322;28;19943;-70
2022/02/19 05:41:51;;;;;;;;;;;;;;;;;;5076028;28;19904;-70
2022/02/19 05:44:17;;;;;;;;;;;;;;;;;;5072019;28;19924;-70
2022/02/19 05:46:43;;;;;;;;;;;;;;;;;;5074346;28;19912;-70
2022/02/19 05:49:09;;;;;;;;;;;;;;;;;;5071015;28;19915;-70
2022/02/19 05:51:35;;;;;;;;;;;;;;;;;;5072573;28;19951;-66
2022/02/19 05:54:01;;;;;;;;;;;;;;;;;;5073292;28;19912;-67
2022/02/19 05:56:26;;;;;;;;;;;;;;;;;;5070789;28;19915;-68
2022/02/19 05:58:52;;;;;;;;;;;;;;;;;;5073533;28;20422;-72
2022/02/19 06:01:18;;;;;;;;;;;;;;;;;;5071847;28;19915;-66
2022/02/19 06:03:46;;;;;;;;;;;;;;;;;;5072131;28;19916;-67
2022/02/19 06:06:12;;;;;;;;;;;;;;;;;;5078715;28;19916;-67
2022/02/19 06:08:38;;;;;;;;;;;;;;;;;;5073642;28;19908;-67
2022/02/19 06:11:03;;;;;;;;;;;;;;;;;;5073175;28;19965;-66
2022/02/19 06:13:29;;;;;;;;;;;;;;;;;;5071911;28;19912;-68
2022/02/19 06:15:58;;;;;;;;;;;;;;;;;;5070001;28;20607;-67
2022/02/19 06:18:24;;;;;;;;;;;;;;;;;;5071222;28;19908;-66
2022/02/19 06:20:50;;;;;;;;;;;;;;;;;;5070280;28;19908;-67
2022/02/19 06:23:16;;;;;;;;;;;;;;;;;;5073990;28;19952;-68
2022/02/19 06:25:42;;;;;;;;;;;;;;;;;;5071319;28;20360;-68
2022/02/19 06:28:08;;;;;;;;;;;;;;;;;;5070308;28;19908;-67
2022/02/19 06:30:33;;;;;;;;;;;;;;;;;;5069679;28;19924;-66
2022/02/19 06:33:01;;;;;;;;;;;;;;;;;;5075286;28;19915;-67
2022/02/19 06:35:27;;;;;;;;;;;;;;;;;;5074888;28;19962;-66
2022/02/19 06:37:52;;;;;;;;;;;;;;;;;;5075486;28;19908;-67
2022/02/19 06:40:18;;;;;;;;;;;;;;;;;;5069158;28;20012;-67
2022/02/19 06:42:44;;;;;;;;;;;;;;;;;;5066790;28;19923;-65
2022/02/19 06:45:10;;;;;;;;;;;;;;;;;;5072453;28;19908;-66
2022/02/19 06:47:36;;;;;;;;;;;;;;;;;;5068462;28;19916;-64
2022/02/19 06:50:02;;;;;;;;;;;;;;;;;;5070037;28;19969;-62
2022/02/19 06:52:28;;;;;;;;;;;;;;;;;;5069672;28;19909;-61
2022/02/19 06:54:54;;;;;;;;;;;;;;;;;;5070232;28;20660;-65
2022/02/19 06:57:21;;;;;;;;;;;;;;;;;;5070576;28;19953;-63
2022/02/19 06:59:47;;;;;;;;;;;;;;;;;;5070144;28;20268;-67
2022/02/19 07:02:13;;;;;;;;;;;;;;;;;;5067308;28;20069;-65
2022/02/19 07:04:39;;;;;;;;;;;;;;;;;;5069515;28;19915;-65
2022/02/19 07:07:05;;;;;;;;;;;;;;;;;;5068614;28;19908;-64
2022/02/19 07:09:31;;;;;;;;;;;;;;;;;;5068565;28;20053;-64
2022/02/19 07:11:57;;;;;;;;;;;;;;;;;;5069589;28;19908;-65
2022/02/19 07:14:23;;;;;;;;;;;;;;;;;;5067959;28;19908;-62
2022/02/19 07:16:49;;;;;;;;;;;;;;;;;;5067608;28;19908;-67
2022/02/19 07:19:14;;;;;;;;;;;;;;;;;;5069150;28;19994;-62
2022/02/19 07:21:40;;;;;;;;;;;;;;;;;;5067025;28;19962;-67
2022/02/19 07:24:06;;;;;;;;;;;;;;;;;;5069978;28;19916;-65
2022/02/19 07:26:32;;;;;;;;;;;;;;;;;;5067978;28;20363;-66
2022/02/19 07:28:58;;;;;;;;;;;;;;;;;;5066358;28;20007;-66
2022/02/19 07:31:24;;;;;;;;;;;;;;;;;;5066736;28;19912;-65
2022/02/19 07:33:50;;;;;;;;;;;;;;;;;;5066491;28;19912;-61
2022/02/19 07:36:16;;;;;;;;;;;;;;;;;;5069125;28;19996;-68
2022/02/19 07:38:41;;;;;;;;;;;;;;;;;;5067288;28;19995;-69
2022/02/19 07:41:07;;;;;;;;;;;;;;;;;;5066619;28;19908;-69
2022/02/19 07:43:33;;;;;;;;;;;;;;;;;;5065324;28;19951;-66
2022/02/19 07:45:59;;;;;;;;;;;;;;;;;;5066352;28;19920;-66
2022/02/19 07:48:25;;;;;;;;;;;;;;;;;;5067438;28;19959;-68
2022/02/19 07:59:05;;;;;;;;;;;;;;;;;;5065339;28;19919;-65
2022/02/19 08:01:31;;;;;;;;;;;;;;;;;;5064755;28;19995;-67
2022/02/19 08:03:57;;;;;;;;;;;;;;;;;;5065215;28;19975;-65
2022/02/19 08:06:23;;;;;;;;;;;;;;;;;;5067764;28;19904;-65
2022/02/19 08:08:49;;;;;;;;;;;;;;;;;;5066957;28;19935;-63
2022/02/19 08:11:14;;;;;;;;;;;;;;;;;;5063893;28;19912;-64
2022/02/19 08:13:40;;;;;;;;;;;;;;;;;;5064247;28;19909;-65
2022/02/19 08:16:08;;;;;;;;;;;;;;;;;;5064394;28;19909;-67
2022/02/19 08:18:34;;;;;;;;;;;;;;;;;;5063884;28;20386;-66
2022/02/19 08:21:00;;;;;;;;;;;;;;;;;;5065695;28;19905;-66
2022/02/19 08:23:26;;;;;;;;;;;;;;;;;;5063939;28;19916;-65
2022/02/19 08:25:52;;;;;;;;;;;;;;;;;;5062974;28;19915;-66
2022/02/19 08:28:18;;;;;;;;;;;;;;;;;;5064595;28;19915;-65
2022/02/19 08:30:43;;;;;;;;;;;;;;;;;;5064044;28;20371;-66
2022/02/19 08:33:09;;;;;;;;;;;;;;;;;;5066930;28;20337;-64
2022/02/19 08:35:35;;;;;;;;;;;;;;;;;;5065068;28;20002;-64
2022/02/19 08:38:01;;;;;;;;;;;;;;;;;;5085617;28;19998;-65
2022/02/19 08:40:28;;;;;;;;;;;;;;;;;;5070324;28;19967;-63
2022/02/19 08:42:53;;;;;;;;;;;;;;;;;;5071024;28;19921;-63
2022/02/19 08:45:19;;;;;;;;;;;;;;;;;;5073441;28;19952;-65
2022/02/19 08:47:45;;;;;;;;;;;;;;;;;;5071788;28;19952;-66
2022/02/19 08:50:11;;;;;;;;;;;;;;;;;;5071539;28;19909;-65
2022/02/19 08:52:37;;;;;;;;;;;;;;;;;;5070632;28;19991;-65
2022/02/19 08:55:03;;;;;;;;;;;;;;;;;;5071012;28;19919;-64
2022/02/19 08:57:29;;;;;;;;;;;;;;;;;;5072866;28;19905;-64
2022/02/19 08:59:55;;;;;;;;;;;;;;;;;;5071285;28;20319;-64
2022/02/19 09:02:21;;;;;;;;;;;;;;;;;;5085999;28;19943;-66
2022/02/19 09:04:47;;;;;;;;;;;;;;;;;;5071146;28;19908;-66
2022/02/19 09:07:16;;;;;;;;;;;;;;;;;;5069540;28;19995;-66
2022/02/19 09:09:42;;;;;;;;;;;;;;;;;;5055143;28;19915;-65
2022/02/19 09:12:08;;;;;;;;;;;;;;;;;;5073923;28;19904;-65
2022/02/19 09:14:34;;;;;;;;;;;;;;;;;;5068641;28;19965;-65
2022/02/19 09:17:00;;;;;;;;;;;;;;;;;;5070662;28;20409;-66
2022/02/19 09:19:28;;;;;;;;;;;;;;;;;;5070377;28;19919;-66
2022/02/19 09:21:54;;;;;;;;;;;;;;;;;;5068344;28;20365;-64
2022/02/19 09:24:19;;;;;;;;;;;;;;;;;;5072394;28;19912;-65
2022/02/19 09:26:45;;;;;;;;;;;;;;;;;;5070752;28;19908;-65
2022/02/19 09:29:11;;;;;;;;;;;;;;;;;;5069102;28;20030;-63
2022/02/19 09:31:38;;;;;;;;;;;;;;;;;;5071360;28;20342;-64
2022/02/19 09:34:03;;;;;;;;;;;;;;;;;;5069148;28;20001;-65
2022/02/19 09:36:29;;;;;;;;;;;;;;;;;;5071676;28;19951;-66
2022/02/19 09:38:55;;;;;;;;;;;;;;;;;;5071646;28;19912;-66
2022/02/19 09:41:21;;;;;;;;;;;;;;;;;;5068328;28;20006;-66
2022/02/19 09:43:47;;;;;;;;;;;;;;;;;;5068513;28;19931;-66
2022/02/19 09:46:13;;;;;;;;;;;;;;;;;;5070052;28;19959;-66
2022/02/19 09:48:39;;;;;;;;;;;;;;;;;;5049811;28;19953;-65
2022/02/19 09:51:05;;;;;;;;;;;;;;;;;;5070147;28;20328;-64
2022/02/19 09:53:31;;;;;;;;;;;;;;;;;;5066168;28;19912;-63
2022/02/19 09:55:57;;;;;;;;;;;;;;;;;;5063883;28;19931;-66
2022/02/19 09:58:24;;;;;;;;;;;;;;;;;;5065638;28;19919;-67
2022/02/19 10:00:50;;;;;;;;;;;;;;;;;;5066036;28;19908;-65
2022/02/19 10:03:16;;;;;;;;;;;;;;;;;;5066916;28;19916;-66
2022/02/19 10:05:42;;;;;;;;;;;;;;;;;;5066770;28;19908;-66
2022/02/19 10:08:08;;;;;;;;;;;;;;;;;;5065701;28;19905;-66
2022/02/19 10:10:35;;;;;;;;;;;;;;;;;;5063952;28;20637;-65
2022/02/19 10:13:01;;;;;;;;;;;;;;;;;;5065561;28;20236;-62
2022/02/19 10:15:27;;;;;;;;;;;;;;;;;;5066677;28;19908;-65
2022/02/19 10:17:54;;;;;;;;;;;;;;;;;;5066442;28;20501;-65
2022/02/19 10:20:19;;;;;;;;;;;;;;;;;;5065239;28;19904;-64
2022/02/19 10:22:46;;;;;;;;;;;;;;;;;;5063226;28;19974;-67
2022/02/19 10:25:12;;;;;;;;;;;;;;;;;;5065155;28;20065;-65
2022/02/19 10:27:39;;;;;;;;;;;;;;;;;;5066328;28;19917;-65
2022/02/19 10:30:05;;;;;;;;;;;;;;;;;;5065083;28;19987;-66
2022/02/19 10:32:30;;;;;;;;;;;;;;;;;;5065554;28;20026;-67
2022/02/19 10:34:56;;;;;;;;;;;;;;;;;;5065685;28;19908;-65
2022/02/19 10:37:22;;;;;;;;;;;;;;;;;;5063636;28;19908;-66
2022/02/19 10:39:48;;;;;;;;;;;;;;;;;;5065301;28;20638;-66
2022/02/19 10:42:14;;;;;;;;;;;;;;;;;;5066119;28;19915;-68
2022/02/19 10:44:40;;;;;;;;;;;;;;;;;;5061649;28;19908;-69
2022/02/19 10:47:06;;;;;;;;;;;;;;;;;;5062113;28;20248;-64
2022/02/19 10:49:32;;;;;;;;;;;;;;;;;;5064377;28;19904;-67
2022/02/19 10:51:58;;;;;;;;;;;;;;;;;;5061801;28;20007;-68
2022/02/19 10:54:24;;;;;;;;;;;;;;;;;;5065795;28;19908;-68
2022/02/19 10:56:50;;;;;;;;;;;;;;;;;;5064131;28;20315;-68
2022/02/19 10:59:16;;;;;;;;;;;;;;;;;;5061996;28;20704;-67
2022/02/19 11:01:42;;;;;;;;;;;;;;;;;;5063313;28;20016;-68
2022/02/19 11:04:08;;;;;;;;;;;;;;;;;;5062450;28;19947;-68
2022/02/19 11:06:33;;;;;;;;;;;;;;;;;;5063854;28;19913;-69
2022/02/19 11:08:59;;;;;;;;;;;;;;;;;;5066200;28;19904;-71
2022/02/19 11:11:25;;;;;;;;;;;;;;;;;;5062554;28;19916;-68
2022/02/19 11:13:51;;;;;;;;;;;;;;;;;;5063782;28;19908;-67
2022/02/19 11:16:17;;;;;;;;;;;;;;;;;;5063457;28;19908;-68
2022/02/19 11:18:43;;;;;;;;;;;;;;;;;;5061420;28;19915;-69
2022/02/19 11:21:09;;;;;;;;;;;;;;;;;;5066452;28;19911;-70
2022/02/19 11:23:35;;;;;;;;;;;;;;;;;;5062551;28;20050;-70
2022/02/19 11:26:00;;;;;;;;;;;;;;;;;;5060495;28;19928;-72
2022/02/19 11:28:27;;;;;;;;;;;;;;;;;;5062374;28;20009;-70
2022/02/19 11:30:54;;;;;;;;;;;;;;;;;;5062083;28;20007;-69
2022/02/19 11:33:20;;;;;;;;;;;;;;;;;;5041967;28;19963;-70
2022/02/19 11:35:46;;;;;;;;;;;;;;;;;;5051014;28;19908;-70
2022/02/19 11:38:12;;;;;;;;;;;;;;;;;;5062482;28;19912;-70
2022/02/19 11:40:37;;;;;;;;;;;;;;;;;;5057876;28;19912;-71
2022/02/19 11:43:07;;;;;;;;;;;;;;;;;;5066596;28;20444;-71
2022/02/19 11:45:35;;;;;;;;;;;;;;;;;;5066676;28;19916;-70
2022/02/19 11:48:00;;;;;;;;;;;;;;;;;;5059433;28;19908;-70
2022/02/19 11:50:26;;;;;;;;;;;;;;;;;;5059939;28;19935;-70
2022/02/19 11:52:52;;;;;;;;;;;;;;;;;;5058516;28;19912;-71
2022/02/19 11:55:18;;;;;;;;;;;;;;;;;;5066423;28;19912;-72
2022/02/19 11:57:44;;;;;;;;;;;;;;;;;;5062820;28;19959;-70
2022/02/19 12:00:10;;;;;;;;;;;;;;;;;;5073595;28;19908;-71
2022/02/19 12:02:38;;;;;;;;;;;;;;;;;;5071097;28;19923;-70
2022/02/19 12:05:03;;;;;;;;;;;;;;;;;;5071845;28;19955;-70
2022/02/19 12:07:29;;;;;;;;;;;;;;;;;;5071667;28;19908;-71
2022/02/19 12:09:55;;;;;;;;;;;;;;;;;;5069045;28;20374;-72
2022/02/19 12:12:21;;;;;;;;;;;;;;;;;;5065762;28;19912;-73
2022/02/19 12:14:49;;;;;;;;;;;;;;;;;;5068838;28;19940;-73
2022/02/19 12:17:15;;;;;;;;;;;;;;;;;;5068422;28;19912;-72
2022/02/19 12:19:41;;;;;;;;;;;;;;;;;;5067599;28;19912;-68
2022/02/19 12:22:07;;;;;;;;;;;;;;;;;;5070176;28;19914;-70
2022/02/19 12:24:33;;;;;;;;;;;;;;;;;;5068290;28;19925;-68
2022/02/19 12:26:59;;;;;;;;;;;;;;;;;;5069658;28;20436;-69
2022/02/19 12:29:25;;;;;;;;;;;;;;;;;;5064195;28;19958;-68
2022/02/19 12:31:51;;;;;;;;;;;;;;;;;;5064084;28;20344;-69
2022/02/19 12:34:17;;;;;;;;;;;;;;;;;;5070898;28;19919;-68
2022/02/19 12:36:43;;;;;;;;;;;;;;;;;;5068884;28;19908;-69
2022/02/19 12:39:09;;;;;;;;;;;;;;;;;;5065321;28;19904;-69
2022/02/19 12:41:35;;;;;;;;;;;;;;;;;;5064019;28;19912;-67
2022/02/19 12:44:00;;;;;;;;;;;;;;;;;;5063236;28;20310;-70
2022/02/19 12:46:27;;;;;;;;;;;;;;;;;;5063098;28;19908;-67
2022/02/19 12:48:53;;;;;;;;;;;;;;;;;;5062967;28;19999;-68
2022/02/19 12:51:19;;;;;;;;;;;;;;;;;;5068851;28;20278;-65
2022/02/19 12:53:45;;;;;;;;;;;;;;;;;;5067397;28;19908;-66
2022/02/19 12:56:11;;;;;;;;;;;;;;;;;;5065380;28;19909;-67
2022/02/19 12:58:38;;;;;;;;;;;;;;;;;;5065878;28;19908;-66
2022/02/19 13:01:05;;;;;;;;;;;;;;;;;;5066486;28;20359;-66
2022/02/19 13:03:31;;;;;;;;;;;;;;;;;;5067715;28;19931;-68
2022/02/19 13:05:58;;;;;;;;;;;;;;;;;;5067497;28;19956;-66
2022/02/19 13:08:29;;;;;;;;;;;;;;;;;;5064839;28;19978;-68
2022/02/19 13:10:55;;;;;;;;;;;;;;;;;;5066430;28;20011;-66
2022/02/19 13:13:21;;;;;;;;;;;;;;;;;;5065326;28;19995;-68
2022/02/19 13:15:47;;;;;;;;;;;;;;;;;;5065748;28;19917;-67
2022/02/19 13:18:13;;;;;;;;;;;;;;;;;;5068850;28;19923;-66
2022/02/19 13:20:39;;;;;;;;;;;;;;;;;;5060947;28;20475;-69
2022/02/19 13:23:05;;;;;;;;;;;;;;;;;;5060999;28;20011;-67
2022/02/19 13:25:32;;;;;;;;;;;;;;;;;;5064107;28;19916;-67
2022/02/19 13:27:58;;;;;;;;;;;;;;;;;;5064491;28;20264;-67
2022/02/19 13:30:26;;;;;;;;;;;;;;;;;;5066934;28;19938;-66
2022/02/19 13:32:52;;;;;;;;;;;;;;;;;;5061463;28;19958;-70
2022/02/19 13:35:18;;;;;;;;;;;;;;;;;;5065076;28;19919;-66
2022/02/19 13:37:44;;;;;;;;;;;;;;;;;;5063649;28;20662;-69
2022/02/19 13:40:10;;;;;;;;;;;;;;;;;;5064380;28;19908;-67
2022/02/19 13:42:36;;;;;;;;;;;;;;;;;;5064439;28;19913;-66
2022/02/19 13:45:02;;;;;;;;;;;;;;;;;;5063633;28;19954;-67
2022/02/19 13:47:28;;;;;;;;;;;;;;;;;;5058886;28;19995;-68
2022/02/19 13:49:54;;;;;;;;;;;;;;;;;;5059404;28;20426;-69
2022/02/19 13:52:20;;;;;;;;;;;;;;;;;;5057670;28;20002;-70
2022/02/19 13:54:45;;;;;;;;;;;;;;;;;;5045207;28;20603;-69
2022/02/19 13:57:11;;;;;;;;;;;;;;;;;;5063436;28;19915;-69
2022/02/19 13:59:37;;;;;;;;;;;;;;;;;;5059190;28;20387;-68
2022/02/19 14:02:03;;;;;;;;;;;;;;;;;;5060125;28;19926;-73
2022/02/19 14:04:29;;;;;;;;;;;;;;;;;;5060326;28;19981;-73
2022/02/19 14:06:55;;;;;;;;;;;;;;;;;;5059100;28;20054;-74
2022/02/19 14:09:21;;;;;;;;;;;;;;;;;;5061547;28;19908;-73
2022/02/19 14:11:47;;;;;;;;;;;;;;;;;;5076776;28;19916;-70
2022/02/19 14:14:13;;;;;;;;;;;;;;;;;;5058622;28;19911;-73
2022/02/19 14:16:39;;;;;;;;;;;;;;;;;;5061596;28;20003;-63
2022/02/19 14:19:05;;;;;;;;;;;;;;;;;;5059703;28;19912;-63
2022/02/19 14:21:31;;;;;;;;;;;;;;;;;;5060177;28;25642;-64
2022/02/19 14:23:57;;;;;;;;;;;;;;;;;;5061411;28;20669;-63
2022/02/19 14:26:23;;;;;;;;;;;;;;;;;;5059158;28;19962;-68
2022/02/19 14:28:49;;;;;;;;;;;;;;;;;;5057652;28;20373;-70
2022/02/19 14:31:15;;;;;;;;;;;;;;;;;;5061744;28;19916;-72
2022/02/19 14:33:41;;;;;;;;;;;;;;;;;;5063043;28;19943;-68
2022/02/19 14:36:07;;;;;;;;;;;;;;;;;;5063926;28;20022;-70
2022/02/19 14:38:34;;;;;;;;;;;;;;;;;;5062254;28;20840;-70
2022/02/19 14:41:00;;;;;;;;;;;;;;;;;;5077548;28;19912;-67
2022/02/19 14:43:26;;;;;;;;;;;;;;;;;;5064140;28;19962;-70
2022/02/19 14:45:52;;;;;;;;;;;;;;;;;;5066326;28;20354;-73
2022/02/19 14:48:18;;;;;;;;;;;;;;;;;;5068764;28;19905;-71
2022/02/19 14:50:44;;;;;;;;;;;;;;;;;;5066199;28;20359;-71
2022/02/19 14:53:09;;;;;;;;;;;;;;;;;;5066750;28;19909;-68
2022/02/19 14:55:35;;;;;;;;;;;;;;;;;;5065136;28;19954;-65
2022/02/19 14:58:01;;;;;;;;;;;;;;;;;;5066975;28;19934;-66
2022/02/19 15:00:27;;;;;;;;;;;;;;;;;;5068218;28;20366;-67
2022/02/19 15:02:53;;;;;;;;;;;;;;;;;;5067477;28;19920;-69
2022/02/19 15:05:21;;;;;;;;;;;;;;;;;;5065848;28;19978;-69
2022/02/19 15:07:47;;;;;;;;;;;;;;;;;;5065347;28;20256;-65
2022/02/19 15:10:15;;;;;;;;;;;;;;;;;;5064682;28;20012;-67
2022/02/19 15:12:43;;;;;;;;;;;;;;;;;;5050066;28;19908;-67
2022/02/19 15:15:08;;;;;;;;;;;;;;;;;;5064924;28;19911;-68
2022/02/19 15:17:34;;;;;;;;;;;;;;;;;;5063744;28;19916;-69
2022/02/19 15:20:00;;;;;;;;;;;;;;;;;;5064846;28;19908;-64
2022/02/19 15:22:26;;;;;;;;;;;;;;;;;;5064992;28;19915;-63
2022/02/19 15:24:52;;;;;;;;;;;;;;;;;;5063561;28;20367;-69
2022/02/19 15:27:19;;;;;;;;;;;;;;;;;;5064097;28;19909;-66
2022/02/19 15:29:47;;;;;;;;;;;;;;;;;;5066191;28;19966;-69
2022/02/19 15:32:13;;;;;;;;;;;;;;;;;;5065286;28;19944;-71
2022/02/19 15:34:39;;;;;;;;;;;;;;;;;;5065660;28;20001;-70
2022/02/19 15:37:05;;;;;;;;;;;;;;;;;;5063890;28;20355;-71
2022/02/19 15:39:31;;;;;;;;;;;;;;;;;;5065504;28;19932;-69
2022/02/19 15:41:57;;;;;;;;;;;;;;;;;;5066681;28;19999;-69
2022/02/19 15:44:23;;;;;;;;;;;;;;;;;;5063376;28;20356;-70
2022/02/19 15:46:49;;;;;;;;;;;;;;;;;;5064036;28;19914;-65
2022/02/19 15:49:15;;;;;;;;;;;;;;;;;;5065796;28;19908;-67
2022/02/19 15:51:41;;;;;;;;;;;;;;;;;;5062075;28;19995;-67
2022/02/19 15:54:07;;;;;;;;;;;;;;;;;;5067813;28;20003;-66
2022/02/19 15:56:33;;;;;;;;;;;;;;;;;;5063280;28;19911;-67
2022/02/19 15:58:59;;;;;;;;;;;;;;;;;;5062013;28;19909;-66
2022/02/19 16:01:25;;;;;;;;;;;;;;;;;;5062322;28;19947;-66
2022/02/19 16:03:50;;;;;;;;;;;;;;;;;;5063788;28;19923;-67
2022/02/19 16:06:16;;;;;;;;;;;;;;;;;;5065939;28;19904;-66
2022/02/19 16:08:42;;;;;;;;;;;;;;;;;;5065709;28;19954;-67
2022/02/19 16:11:09;;;;;;;;;;;;;;;;;;5063002;28;19912;-67
2022/02/19 16:13:35;;;;;;;;;;;;;;;;;;5061354;28;20394;-63
2022/02/19 16:16:01;;;;;;;;;;;;;;;;;;5063636;28;19944;-66
2022/02/19 16:18:27;;;;;;;;;;;;;;;;;;5063601;28;19912;-63
2022/02/19 16:20:53;;;;;;;;;;;;;;;;;;5065362;28;19917;-61
2022/02/19 16:23:19;;;;;;;;;;;;;;;;;;5063184;28;19916;-62
2022/02/19 16:25:45;;;;;;;;;;;;;;;;;;5058796;28;19912;-65
2022/02/19 16:28:10;;;;;;;;;;;;;;;;;;5063657;28;19918;-62
2022/02/19 16:30:36;;;;;;;;;;;;;;;;;;5062841;28;20412;-64
2022/02/19 16:33:02;;;;;;;;;;;;;;;;;;5062448;28;19947;-62
2022/02/19 16:35:28;;;;;;;;;;;;;;;;;;5061160;28;20501;-62
2022/02/19 16:37:56;;;;;;;;;;;;;;;;;;5063327;28;19937;-62
2022/02/19 16:40:22;;;;;;;;;;;;;;;;;;5060705;28;20003;-63
2022/02/19 16:42:47;;;;;;;;;;;;;;;;;;5062725;28;20070;-64
2022/02/19 16:45:13;;;;;;;;;;;;;;;;;;5064764;28;19905;-61